createdAt,value
2022-12-25T00:02:05.258Z,95272.66
2022-12-25T00:05:15.065Z,95268.31
2022-12-25T00:08:23.566Z,95257.69
2022-12-25T00:11:32.080Z,95245.28
2022-12-25T00:14:40.476Z,95232.84
2022-12-25T00:17:48.861Z,95230.72
2022-12-25T00:21:04.866Z,95228.44
2022-12-25T00:24:13.106Z,95238.94
2022-12-25T00:27:21.632Z,95233.66
2022-12-25T00:30:30.148Z,95227.69
2022-12-25T00:33:40.265Z,95232.03
2022-12-25T00:36:52.233Z,95233.88
2022-12-25T00:40:00.845Z,95242.16
2022-12-25T00:43:09.245Z,95234.06
2022-12-25T00:46:17.725Z,95240.34
2022-12-25T00:49:26.313Z,95245.22
2022-12-25T00:52:36.189Z,95244.84
2022-12-25T00:55:44.302Z,95239.72
2022-12-25T00:58:53.157Z,95250.66
2022-12-25T01:02:22.219Z,95256.94
2022-12-25T01:05:30.571Z,95256.59
2022-12-25T01:09:03.603Z,95245.16
2022-12-25T01:12:11.441Z,95249.94
2022-12-25T01:15:20.450Z,95257.53
2022-12-25T01:18:28.565Z,95254.03
2022-12-25T01:21:36.855Z,95244.44
2022-12-25T01:24:47.002Z,95241.44
2022-12-25T01:27:55.387Z,95244.41
2022-12-25T01:31:04.167Z,95239.94
2022-12-25T01:34:12.551Z,95239.41
2022-12-25T01:37:20.982Z,95237.94
2022-12-25T01:40:30.730Z,95233.59
2022-12-25T01:44:02.971Z,95224.66
2022-12-25T01:47:11.330Z,95213.25
2022-12-25T01:50:21.191Z,95213.56
2022-12-25T01:53:30.350Z,95209.03
2022-12-25T01:56:44.087Z,95217.44
2022-12-25T01:59:52.853Z,95220.25
2022-12-25T02:03:01.552Z,95228.56
2022-12-25T02:06:11.186Z,95229.22
2022-12-25T02:09:20.404Z,95227.91
2022-12-25T02:12:35.256Z,95233.69
2022-12-25T02:15:56.267Z,95220.63
2022-12-25T02:19:27.530Z,95207.22
2022-12-25T02:22:51.423Z,95202.94
2022-12-25T02:26:17.060Z,95204.94
2022-12-25T02:29:37.995Z,95189.06
2022-12-25T02:33:18.070Z,95190.22
2022-12-25T02:36:34.039Z,95187.41
2022-12-25T02:39:59.318Z,95189.38
2022-12-25T02:43:32.858Z,95188.38
2022-12-25T02:47:01.655Z,95194.84
2022-12-25T02:50:28.680Z,95201.59
2022-12-25T02:53:58.326Z,95200.13
2022-12-25T02:57:30.584Z,95201.22
2022-12-25T03:01:02.644Z,95201.59
2022-12-25T03:04:37.625Z,95197.81
2022-12-25T03:07:46.908Z,95210.56
2022-12-25T03:11:22.020Z,95204.94
2022-12-25T03:14:48.341Z,95207.28
2022-12-25T03:18:03.908Z,95198.97
2022-12-25T03:21:30.934Z,95197.53
2022-12-25T03:24:56.776Z,95197.47
2022-12-25T03:28:06.510Z,95194.31
2022-12-25T03:31:21.585Z,95197.94
2022-12-25T03:35:14.740Z,95199.06
2022-12-25T03:38:52.230Z,95189.88
2022-12-25T03:42:23.310Z,95190.50
2022-12-25T03:45:58.722Z,95196.25
2022-12-25T03:49:34.587Z,95192.00
2022-12-25T03:53:02.897Z,95185.19
2022-12-25T03:56:35.161Z,95178.41
2022-12-25T04:00:00.766Z,95179.06
2022-12-25T04:03:26.752Z,95173.91
2022-12-25T04:06:52.596Z,95171.19
2022-12-25T04:10:18.126Z,95163.53
2022-12-25T04:13:45.352Z,95189.38
2022-12-25T04:17:11.079Z,95186.41
2022-12-25T04:20:36.840Z,95161.88
2022-12-25T04:24:02.816Z,95176.59
2022-12-25T04:27:28.492Z,95178.06
2022-12-25T04:30:54.711Z,95169.78
2022-12-25T04:34:20.333Z,95178.03
2022-12-25T04:37:28.646Z,95166.78
2022-12-25T04:40:37.356Z,95177.38
2022-12-25T04:43:45.509Z,95180.72
2022-12-25T04:46:55.052Z,95182.19
2022-12-25T04:50:03.406Z,95186.97
2022-12-25T04:53:11.567Z,95185.31
2022-12-25T04:56:21.364Z,95175.38
2022-12-25T04:59:29.571Z,95170.50
2022-12-25T05:02:39.600Z,95158.50
2022-12-25T05:05:49.537Z,95162.16
2022-12-25T05:08:57.842Z,95165.78
2022-12-25T05:12:06.445Z,95171.78
2022-12-25T05:15:14.550Z,95182.97
2022-12-25T05:18:24.111Z,95176.00
2022-12-25T05:21:32.380Z,95174.13
2022-12-25T05:24:40.524Z,95157.53
2022-12-25T05:27:53.730Z,95156.38
2022-12-25T05:31:02.316Z,95162.19
2022-12-25T05:34:11.927Z,95166.84
2022-12-25T05:37:20.254Z,95166.34
2022-12-25T05:40:28.455Z,95155.94
2022-12-25T05:43:36.699Z,95161.50
2022-12-25T05:46:45.061Z,95154.94
2022-12-25T05:49:54.695Z,95165.50
2022-12-25T05:53:08.396Z,95170.47
2022-12-25T05:56:17.156Z,95168.81
2022-12-25T05:59:25.394Z,95169.91
2022-12-25T06:02:36.002Z,95159.97
2022-12-25T06:05:45.717Z,95160.59
2022-12-25T06:08:55.970Z,95153.94
2022-12-25T06:12:04.104Z,95156.41
2022-12-25T06:15:12.526Z,95154.94
2022-12-25T06:18:20.743Z,95158.94
2022-12-25T06:21:30.328Z,95155.63
2022-12-25T06:24:38.565Z,95149.69
2022-12-25T06:27:46.741Z,95159.63
2022-12-25T06:30:55.613Z,95167.63
2022-12-25T06:34:03.875Z,95167.25
2022-12-25T06:37:16.171Z,95154.56
2022-12-25T06:40:24.952Z,95160.84
2022-12-25T06:43:33.116Z,95163.00
2022-12-25T06:46:41.418Z,95159.34
2022-12-25T06:49:49.592Z,95155.91
2022-12-25T06:52:59.154Z,95159.91
2022-12-25T06:56:09.785Z,95169.34
2022-12-25T06:59:18.305Z,95165.69
2022-12-25T07:02:27.423Z,95172.28
2022-12-25T07:05:35.906Z,95165.63
2022-12-25T07:08:45.582Z,95166.03
2022-12-25T07:11:54.037Z,95164.19
2022-12-25T07:15:02.276Z,95154.25
2022-12-25T07:18:11.005Z,95161.69
2022-12-25T07:21:22.663Z,95166.63
2022-12-25T07:24:32.454Z,95157.38
2022-12-25T07:27:41.155Z,95161.63
2022-12-25T07:30:49.726Z,95155.16
2022-12-25T07:33:57.991Z,95157.97
2022-12-25T07:37:06.233Z,95159.63
2022-12-25T07:40:16.587Z,95168.22
2022-12-25T07:43:25.201Z,95169.53
2022-12-25T07:46:33.422Z,95160.38
2022-12-25T07:49:41.898Z,95158.84
2022-12-25T07:52:50.664Z,95157.19
2022-12-25T07:56:03.671Z,95161.78
2022-12-25T07:59:12.078Z,95163.16
2022-12-25T08:02:26.804Z,95157.69
2022-12-25T08:05:35.457Z,95160.00
2022-12-25T08:08:43.907Z,95157.19
2022-12-25T08:11:59.912Z,95159.13
2022-12-25T08:15:13.131Z,95159.25
2022-12-25T08:18:29.947Z,95157.38
2022-12-25T08:21:40.391Z,95149.09
2022-12-25T08:24:52.236Z,95146.03
2022-12-25T08:28:07.748Z,95153.91
2022-12-25T08:31:20.546Z,95149.31
2022-12-25T08:34:28.897Z,95151.50
2022-12-25T08:37:37.028Z,95149.25
2022-12-25T08:40:45.246Z,95147.47
2022-12-25T08:43:55.239Z,95145.47
2022-12-25T08:47:03.648Z,95152.03
2022-12-25T08:50:11.848Z,95143.03
2022-12-25T08:53:21.969Z,95140.00
2022-12-25T08:56:30.190Z,95140.38
2022-12-25T08:59:40.357Z,95135.31
2022-12-25T09:02:49.778Z,95140.09
2022-12-25T09:06:04.177Z,95138.44
2022-12-25T09:09:12.454Z,95138.53
2022-12-25T09:12:20.980Z,95136.44
2022-12-25T09:15:30.939Z,95138.00
2022-12-25T09:18:40.285Z,95130.75
2022-12-25T09:21:49.059Z,95119.31
2022-12-25T09:24:57.323Z,95122.22
2022-12-25T09:28:06.665Z,95118.47
2022-12-25T09:31:16.579Z,95110.28
2022-12-25T09:34:26.268Z,95108.56
2022-12-25T09:37:34.698Z,95116.06
2022-12-25T09:40:44.174Z,95108.19
2022-12-25T09:43:59.712Z,95104.72
2022-12-25T09:47:16.288Z,95107.06
2022-12-25T09:50:43.578Z,95105.38
2022-12-25T09:54:02.954Z,95096.53
2022-12-25T09:57:14.171Z,95100.28
2022-12-25T10:00:26.252Z,95089.44
2022-12-25T10:04:00.378Z,95086.66
2022-12-25T10:07:19.460Z,95081.84
2022-12-25T10:10:50.414Z,95084.81
2022-12-25T10:14:24.315Z,95091.38
2022-12-25T10:18:01.445Z,95099.22
2022-12-25T10:21:18.152Z,95087.84
2022-12-25T10:24:37.205Z,95087.91
2022-12-25T10:27:46.752Z,95085.09
2022-12-25T10:30:59.769Z,95081.03
2022-12-25T10:34:13.120Z,95082.31
2022-12-25T10:37:23.003Z,95085.22
2022-12-25T10:40:45.455Z,95065.13
2022-12-25T10:43:56.543Z,95060.22
2022-12-25T10:47:07.026Z,95047.09
2022-12-25T10:50:24.707Z,95048.53
2022-12-25T10:53:42.852Z,95037.66
2022-12-25T10:56:57.812Z,95043.47
2022-12-25T11:00:21.649Z,95024.56
2022-12-25T11:03:32.820Z,95030.50
2022-12-25T11:06:41.160Z,95016.97
2022-12-25T11:09:57.795Z,95020.25
2022-12-25T11:13:20.251Z,95022.91
2022-12-25T11:16:33.853Z,95020.00
2022-12-25T11:19:54.179Z,95020.78
2022-12-25T11:23:02.783Z,95004.94
2022-12-25T11:26:13.972Z,95012.13
2022-12-25T11:29:32.200Z,95012.94
2022-12-25T11:32:52.414Z,95010.28
2022-12-25T11:36:05.543Z,95008.44
2022-12-25T11:39:24.791Z,95005.53
2022-12-25T11:42:41.138Z,95005.81
2022-12-25T11:45:56.024Z,94998.88
2022-12-25T11:49:11.865Z,94999.06
2022-12-25T11:52:23.383Z,94994.97
2022-12-25T11:55:40.878Z,94987.78
2022-12-25T11:58:54.558Z,94976.22
2022-12-25T12:02:19.737Z,94975.66
2022-12-25T12:05:38.705Z,94973.16
2022-12-25T12:08:52.852Z,94957.53
2022-12-25T12:12:12.495Z,94953.91
2022-12-25T12:15:30.660Z,94951.44
2022-12-25T12:18:39.086Z,94948.38
2022-12-25T12:21:51.065Z,94951.25
2022-12-25T12:25:06.071Z,94947.75
2022-12-25T12:28:24.012Z,94953.47
2022-12-25T12:31:43.983Z,94941.69
2022-12-25T12:34:52.793Z,94949.72
2022-12-25T12:38:05.763Z,94947.13
2022-12-25T12:41:16.365Z,94942.56
2022-12-25T12:44:32.290Z,94931.91
2022-12-25T12:47:48.145Z,94926.69
2022-12-25T12:51:05.479Z,94922.22
2022-12-25T12:54:25.307Z,94923.75
2022-12-25T12:57:39.808Z,94932.59
2022-12-25T13:00:56.434Z,94925.88
2022-12-25T13:04:43.794Z,94928.97
2022-12-25T13:08:08.794Z,94927.72
2022-12-25T13:11:22.515Z,94921.03
2022-12-25T13:14:30.748Z,94916.94
2022-12-25T13:17:39.790Z,94913.25
2022-12-25T13:20:56.452Z,94913.69
2022-12-25T13:24:10.065Z,94918.06
2022-12-25T13:27:25.667Z,94928.94
2022-12-25T13:30:34.105Z,94921.97
2022-12-25T13:33:47.410Z,94916.00
2022-12-25T13:36:58.920Z,94906.41
2022-12-25T13:40:18.858Z,94900.22
2022-12-25T13:43:27.048Z,94888.34
2022-12-25T13:46:35.158Z,94884.88
2022-12-25T13:49:43.587Z,94887.53
2022-12-25T13:52:55.409Z,94899.66
2022-12-25T13:56:03.583Z,94903.16
2022-12-25T13:59:19.234Z,94900.25
2022-12-25T14:02:33.458Z,94896.38
2022-12-25T14:05:43.558Z,94898.66
2022-12-25T14:08:56.588Z,94902.97
2022-12-25T14:12:05.995Z,94908.88
2022-12-25T14:15:21.797Z,94905.19
2022-12-25T14:18:31.959Z,94897.84
2022-12-25T14:21:49.231Z,94904.78
2022-12-25T14:24:59.001Z,94907.44
2022-12-25T14:28:18.243Z,94904.97
2022-12-25T14:31:30.060Z,94908.41
2022-12-25T14:34:38.845Z,94909.22
2022-12-25T14:37:59.951Z,94896.50
2022-12-25T14:41:34.164Z,94905.88
2022-12-25T14:44:42.618Z,94905.88
2022-12-25T14:47:54.045Z,94907.59
2022-12-25T14:51:07.798Z,94918.41
2022-12-25T14:54:23.114Z,94918.56
2022-12-25T14:57:38.709Z,94924.00
2022-12-25T15:00:57.503Z,94919.44
2022-12-25T15:04:14.364Z,94924.63
2022-12-25T15:07:30.621Z,94927.59
2022-12-25T15:11:09.496Z,94931.19
2022-12-25T15:14:09.601Z,94919.81
2022-12-25T15:17:29.147Z,94915.03
2022-12-25T15:20:37.485Z,94907.38
2022-12-25T15:23:46.398Z,94924.78
2022-12-25T15:26:55.388Z,94931.22
2022-12-25T15:30:10.365Z,94923.25
2022-12-25T15:33:20.766Z,94930.63
2022-12-25T15:36:29.611Z,94924.41
2022-12-25T15:39:38.053Z,94930.00
2022-12-25T15:42:50.287Z,94926.16
2022-12-25T15:45:59.865Z,94920.72
2022-12-25T15:49:08.504Z,94917.81
2022-12-25T15:52:18.722Z,94924.34
2022-12-25T15:55:27.638Z,94923.72
2022-12-25T15:58:38.808Z,94921.72
2022-12-25T16:01:52.753Z,94918.53
2022-12-25T16:05:05.438Z,94926.75
2022-12-25T16:08:16.897Z,94915.97
2022-12-25T16:11:25.604Z,94925.56
2022-12-25T16:14:36.882Z,94923.94
2022-12-25T16:17:46.928Z,94930.03
2022-12-25T16:20:56.113Z,94922.44
2022-12-25T16:24:04.966Z,94929.31
2022-12-25T16:27:13.517Z,94929.13
2022-12-25T16:30:21.988Z,94931.63
2022-12-25T16:33:32.238Z,94933.34
2022-12-25T16:36:40.808Z,94933.72
2022-12-25T16:39:49.145Z,94930.09
2022-12-25T16:42:58.107Z,94931.22
2022-12-25T16:46:12.032Z,94934.03
2022-12-25T16:49:21.755Z,94930.97
2022-12-25T16:52:31.528Z,94939.50
2022-12-25T16:55:39.734Z,94936.03
2022-12-25T16:58:49.514Z,94929.31
2022-12-25T17:01:58.196Z,94925.06
2022-12-25T17:05:10.116Z,94929.59
2022-12-25T17:08:18.244Z,94943.00
2022-12-25T17:11:30.319Z,94938.97
2022-12-25T17:14:38.643Z,94949.41
2022-12-25T17:17:46.796Z,94939.25
2022-12-25T17:20:56.336Z,94940.94
2022-12-25T17:24:05.793Z,94938.31
2022-12-25T17:27:14.607Z,94936.59
2022-12-25T17:30:22.970Z,94935.28
2022-12-25T17:33:31.376Z,94933.69
2022-12-25T17:36:41.516Z,94925.25
2022-12-25T17:39:49.695Z,94924.91
2022-12-25T17:42:57.827Z,94930.41
2022-12-25T17:46:08.090Z,94940.00
2022-12-25T17:49:19.845Z,94940.31
2022-12-25T17:52:29.518Z,94947.47
2022-12-25T17:55:40.442Z,94945.47
2022-12-25T17:58:52.579Z,94945.28
2022-12-25T18:02:01.275Z,94937.84
2022-12-25T18:05:11.254Z,94945.63
2022-12-25T18:08:20.931Z,94947.41
2022-12-25T18:11:33.036Z,94949.25
2022-12-25T18:14:41.614Z,94948.38
2022-12-25T18:17:49.878Z,94958.19
2022-12-25T18:20:58.171Z,94966.59
2022-12-25T18:24:09.616Z,94977.88
2022-12-25T18:27:17.925Z,94978.00
2022-12-25T18:30:26.564Z,94980.16
2022-12-25T18:33:34.961Z,94981.38
2022-12-25T18:36:44.568Z,94981.03
2022-12-25T18:39:54.626Z,94968.44
2022-12-25T18:43:03.743Z,94974.56
2022-12-25T18:46:12.746Z,94978.56
2022-12-25T18:49:21.543Z,94981.34
2022-12-25T18:52:49.305Z,94982.66
2022-12-25T18:56:09.681Z,94984.41
2022-12-25T18:59:18.319Z,94986.59
2022-12-25T19:02:28.364Z,94996.44
2022-12-25T19:05:40.693Z,95006.34
2022-12-25T19:08:50.221Z,95008.19
2022-12-25T19:12:00.509Z,95012.81
2022-12-25T19:15:10.012Z,95013.59
2022-12-25T19:18:18.476Z,95010.53
2022-12-25T19:21:26.866Z,95017.56
2022-12-25T19:24:36.915Z,95009.88
2022-12-25T19:27:46.897Z,95006.69
2022-12-25T19:30:55.988Z,95006.59
2022-12-25T19:34:04.386Z,95002.91
2022-12-25T19:37:13.161Z,95009.38
2022-12-25T19:40:22.580Z,95012.31
2022-12-25T19:43:35.221Z,95019.41
2022-12-25T19:46:43.952Z,95021.16
2022-12-25T19:49:53.326Z,95029.84
2022-12-25T19:53:02.623Z,95022.34
2022-12-25T19:56:11.271Z,95022.16
2022-12-25T19:59:21.011Z,95024.91
2022-12-25T20:02:29.421Z,95017.97
2022-12-25T20:05:38.468Z,95014.38
2022-12-25T20:08:47.654Z,95025.97
2022-12-25T20:11:56.226Z,95031.38
2022-12-25T20:15:07.466Z,95022.66
2022-12-25T20:18:16.843Z,95026.50
2022-12-25T20:21:30.333Z,95024.28
2022-12-25T20:24:38.975Z,95021.41
2022-12-25T20:27:48.352Z,95017.63
2022-12-25T20:31:00.664Z,95014.88
2022-12-25T20:34:13.048Z,95027.44
2022-12-25T20:37:22.243Z,95025.00
2022-12-25T20:40:32.474Z,95024.00
2022-12-25T20:43:51.329Z,95031.81
2022-12-25T20:47:03.832Z,95038.81
2022-12-25T20:50:15.524Z,95027.84
2022-12-25T20:53:26.379Z,95018.63
2022-12-25T20:56:36.342Z,95005.44
2022-12-25T20:59:48.591Z,95020.97
2022-12-25T21:02:58.480Z,95023.53
2022-12-25T21:06:11.846Z,95021.25
2022-12-25T21:09:20.960Z,95022.91
2022-12-25T21:12:30.248Z,95018.97
2022-12-25T21:15:47.728Z,95018.41
2022-12-25T21:18:58.608Z,95032.94
2022-12-25T21:22:06.982Z,95044.66
2022-12-25T21:25:15.288Z,95045.66
2022-12-25T21:28:26.138Z,95045.63
2022-12-25T21:31:55.718Z,95053.38
2022-12-25T21:35:05.644Z,95051.09
2022-12-25T21:38:14.436Z,95056.75
2022-12-25T21:41:22.904Z,95059.22
2022-12-25T21:44:32.125Z,95062.25
2022-12-25T21:48:01.564Z,95060.34
2022-12-25T21:51:33.327Z,95067.28
2022-12-25T21:54:41.954Z,95080.72
2022-12-25T21:57:50.969Z,95079.91
2022-12-25T22:01:04.367Z,95079.75
2022-12-25T22:04:14.472Z,95084.16
2022-12-25T22:07:23.031Z,95086.34
2022-12-25T22:10:32.127Z,95085.03
2022-12-25T22:13:57.883Z,95088.06
2022-12-25T22:17:24.576Z,95094.56
2022-12-25T22:20:38.889Z,95084.25
2022-12-25T22:23:49.741Z,95099.34
2022-12-25T22:26:58.345Z,95086.94
2022-12-25T22:30:10.748Z,95099.84
2022-12-25T22:33:22.417Z,95110.50
2022-12-25T22:36:31.100Z,95102.16
2022-12-25T22:39:41.017Z,95099.03
2022-12-25T22:42:49.818Z,95103.69
2022-12-25T22:46:00.568Z,95097.47
2022-12-25T22:49:09.303Z,95100.44
2022-12-25T22:52:19.028Z,95106.72
2022-12-25T22:55:29.174Z,95101.13
2022-12-25T22:58:38.553Z,95091.91
2022-12-25T23:01:47.867Z,95094.88
2022-12-25T23:04:56.615Z,95094.56
2022-12-25T23:08:05.323Z,95107.75
2022-12-25T23:11:16.590Z,95108.13
2022-12-25T23:14:41.909Z,95105.50
2022-12-25T23:18:08.286Z,95104.16
2022-12-25T23:21:36.580Z,95103.84
2022-12-25T23:25:02.123Z,95106.78
2022-12-25T23:28:11.856Z,95102.84
2022-12-25T23:31:25.074Z,95107.47
2022-12-25T23:34:34.346Z,95107.78
2022-12-25T23:37:42.781Z,95105.13
2022-12-25T23:40:51.005Z,95114.84
2022-12-25T23:44:01.006Z,95119.94
2022-12-25T23:47:09.510Z,95115.31
2022-12-25T23:50:18.225Z,95123.78
2022-12-25T23:53:26.573Z,95120.63
2022-12-25T23:56:35.546Z,95121.94
2022-12-25T23:59:45.897Z,95130.13
